Terminal Aerodrome Forecast
Issued by NWS Brownsville, TX

Home | Current Version | Previous Version | Text Only | Print | Product List | Glossary On
Versions: 1 2 3 4 5 6 7 8 9 10 11 12 13 14 15 16 17 18 19
172
FTUS44 KBRO 292327
TAFMFE
TAF
KMFE 292327Z 3000/3024 06012KT P6SM FEW045
     FM300200 08009KT P6SM SCT045
     FM300800 VRB03KT 5SM BR BKN030
     FM301100 33012KT P6SM SCT035
     FM301300 35015G20KT P6SM SCT040
     FM301900 36010KT P6SM SKC=

USA.gov is the U.S. government's official web portal to all federal, state and local government web resources and services.